Time;durP1;ratioP1;P1;durP2;ratioP2;P2;SDS_P1;SDS_P2;PMS_P1;PMS_P2;Temp;Humidity;BMP_temperature;BMP_pressure;BME280_temperature;BME280_humidity;BME280_pressure;Samples;Min_cycle;Max_cycle;Signal;HPM_P1;HPM_P2
2023/08/11 00:02:22;;;;;;;16.13;9.98;;;;;;;17.34;100.00;101988.34;5048798;28;20033;-72
2023/08/11 00:04:50;;;;;;;11.90;10.63;;;;;;;17.26;100.00;101988.03;5048660;28;20118;-72
2023/08/11 00:07:15;;;;;;;14.93;10.32;;;;;;;17.26;100.00;101992.56;5049038;28;20029;-72
2023/08/11 00:09:41;;;;;;;11.95;9.23;;;;;;;17.28;100.00;101988.78;5049289;28;20033;-72
2023/08/11 00:12:07;;;;;;;16.85;10.68;;;;;;;17.25;100.00;101980.91;5049936;28;20056;-72
2023/08/11 00:14:32;;;;;;;14.88;11.50;;;;;;;17.17;100.00;101987.84;5050078;28;20110;-72
2023/08/11 00:16:58;;;;;;;13.15;10.50;;;;;;;17.24;100.00;101981.91;5049938;28;20040;-72
2023/08/11 00:19:24;;;;;;;13.05;9.05;;;;;;;17.26;100.00;101984.47;5042654;28;20119;-73
2023/08/11 00:21:49;;;;;;;15.73;9.80;;;;;;;17.23;100.00;101985.56;5039357;28;20705;-72
2023/08/11 00:24:16;;;;;;;15.27;9.23;;;;;;;17.22;100.00;101983.84;5050591;28;20819;-72
2023/08/11 00:26:42;;;;;;;15.57;10.45;;;;;;;17.21;100.00;101986.63;5050744;28;20037;-71
2023/08/11 00:29:08;;;;;;;10.23;9.23;;;;;;;17.16;100.00;101988.81;5052973;28;20040;-72
2023/08/11 00:31:35;;;;;;;12.90;10.30;;;;;;;17.12;100.00;101981.91;5052787;28;20033;-72
2023/08/11 00:34:01;;;;;;;13.68;10.57;;;;;;;17.10;100.00;101976.66;5050994;28;20068;-72
2023/08/11 00:36:26;;;;;;;11.70;10.15;;;;;;;16.99;100.00;101974.72;5052635;28;20045;-72
2023/08/11 00:38:52;;;;;;;19.88;10.18;;;;;;;17.00;100.00;101972.91;5046908;28;20038;-72
2023/08/11 00:41:17;;;;;;;12.35;8.65;;;;;;;17.07;100.00;101974.19;5051975;28;20592;-72
2023/08/11 00:43:43;;;;;;;10.57;9.48;;;;;;;17.07;100.00;101975.06;5052566;28;20814;-72
2023/08/11 00:46:13;;;;;;;16.50;10.88;;;;;;;17.04;100.00;101974.41;5042768;28;20038;-72
2023/08/11 00:48:42;;;;;;;14.15;11.18;;;;;;;16.95;100.00;101964.28;5051384;28;20033;-72
2023/08/11 00:51:09;;;;;;;13.10;9.77;;;;;;;16.91;100.00;101973.56;5067076;28;20080;-72
2023/08/11 00:53:36;;;;;;;10.18;9.07;;;;;;;17.01;100.00;101969.22;5084571;28;20037;-72
2023/08/11 00:56:04;;;;;;;16.55;10.27;;;;;;;16.92;100.00;101975.28;5052746;28;20033;-72
2023/08/11 00:58:32;;;;;;;14.93;11.13;;;;;;;16.95;100.00;101970.53;5050208;28;20043;-72
2023/08/11 01:00:58;;;;;;;13.60;10.45;;;;;;;16.87;100.00;101962.16;5045027;28;20206;-72
2023/08/11 01:03:24;;;;;;;12.00;10.57;;;;;;;16.88;100.00;101969.25;5056567;28;20033;-72
2023/08/11 01:06:04;;;;;;;14.30;11.32;;;;;;;16.90;100.00;101971.84;5052428;28;20046;-72
2023/08/11 01:08:34;;;;;;;11.70;9.85;;;;;;;16.87;100.00;101956.78;5043655;28;20037;-72
2023/08/11 01:11:06;;;;;;;11.98;10.48;;;;;;;16.85;100.00;101955.16;5059371;28;20079;-72
2023/08/11 01:13:34;;;;;;;;;;;;;;;16.86;100.00;101957.72;5064988;28;20236;-72
2023/08/11 01:16:00;;;;;;;11.15;9.90;;;;;;;16.77;100.00;101953.03;5056262;28;19924;-72
2023/08/11 01:18:28;;;;;;;11.57;9.65;;;;;;;16.78;100.00;101963.66;5061015;28;20025;-73
2023/08/11 01:21:06;;;;;;;11.50;9.85;;;;;;;16.80;100.00;101955.47;5058879;28;20037;-72
2023/08/11 01:23:32;;;;;;;9.82;8.82;;;;;;;16.76;100.00;101946.75;5091480;27;20097;-72
2023/08/11 01:25:58;;;;;;;11.77;9.02;;;;;;;16.73;100.00;101957.75;5063008;28;20029;-72
2023/08/11 01:28:24;;;;;;;11.32;9.93;;;;;;;16.70;100.00;101947.16;5068765;28;20080;-72
2023/08/11 01:30:49;;;;;;;9.77;8.70;;;;;;;16.70;100.00;101944.47;5061659;28;20045;-72
2023/08/11 01:33:15;;;;;;;11.77;8.50;;;;;;;16.62;100.00;101938.78;5051794;28;20100;-71
2023/08/11 01:35:41;;;;;;;13.65;9.13;;;;;;;16.66;100.00;101940.25;5065349;28;20033;-72
2023/08/11 01:38:10;;;;;;;14.57;10.15;;;;;;;16.61;100.00;101936.19;5052428;28;21046;-72
2023/08/11 01:40:36;;;;;;;11.30;9.73;;;;;;;16.61;100.00;101926.25;5052183;28;20041;-72
2023/08/11 01:43:05;;;;;;;12.07;10.80;;;;;;;16.53;100.00;101924.13;5053981;28;20041;-72
2023/08/11 01:45:31;;;;;;;15.45;10.57;;;;;;;16.57;100.00;101922.09;5053451;28;20091;-72
2023/08/11 01:47:58;;;;;;;13.40;9.73;;;;;;;16.55;100.00;101922.19;5077626;28;20040;-71
2023/08/11 01:50:26;;;;;;;14.07;10.57;;;;;;;16.49;100.00;101924.44;5052167;28;20029;-72
2023/08/11 01:52:54;;;;;;;19.55;11.18;;;;;;;16.57;100.00;101922.09;5050391;28;20041;-71
2023/08/11 01:55:20;;;;;;;17.55;11.68;;;;;;;16.54;100.00;101922.28;5040341;28;20033;-71
2023/08/11 01:57:46;;;;;;;13.20;9.82;;;;;;;16.50;100.00;101921.66;5048755;28;20040;-72
2023/08/11 02:00:16;;;;;;;16.38;10.63;;;;;;;16.48;100.00;101925.44;5043389;28;21009;-72
2023/08/11 02:02:43;;;;;;;12.25;9.57;;;;;;;16.36;100.00;101923.59;5047865;28;20044;-72
2023/08/11 02:05:13;;;;;;;15.50;9.52;;;;;;;16.41;100.00;101921.44;5050381;28;20572;-72
2023/08/11 02:07:39;;;;;;;11.10;9.55;;;;;;;16.43;100.00;101917.69;5050187;28;20052;-72
2023/08/11 02:10:06;;;;;;;10.38;9.27;;;;;;;16.46;100.00;101914.75;5049794;28;20029;-72
2023/08/11 02:12:32;;;;;;;11.68;9.85;;;;;;;16.48;100.00;101917.34;5065574;28;20069;-72
2023/08/11 02:14:58;;;;;;;13.63;9.73;;;;;;;16.35;100.00;101917.34;5050225;28;20032;-72
2023/08/11 02:17:24;;;;;;;13.05;11.40;;;;;;;16.42;100.00;101921.34;5048779;28;20460;-72
2023/08/11 02:19:50;;;;;;;10.77;9.68;;;;;;;16.41;100.00;101921.44;5038762;28;20914;-72
2023/08/11 02:22:17;;;;;;;17.10;11.65;;;;;;;16.44;100.00;101922.09;5045839;28;20037;-72
2023/08/11 02:24:42;;;;;;;17.77;10.85;;;;;;;16.36;100.00;101928.97;5050394;28;20033;-72
2023/08/11 02:27:09;;;;;;;13.85;9.63;;;;;;;16.44;100.00;101932.00;5064257;28;20040;-72
2023/08/11 02:29:36;;;;;;;15.77;10.07;;;;;;;16.41;100.00;101933.06;5049232;28;20086;-72
2023/08/11 02:32:04;;;;;;;12.85;10.63;;;;;;;16.36;100.00;101920.91;5049385;28;20242;-72
2023/08/11 02:34:32;;;;;;;14.80;10.00;;;;;;;16.34;100.00;101922.84;5065358;28;20025;-72
2023/08/11 02:36:58;;;;;;;16.90;11.15;;;;;;;16.36;100.00;101920.91;5054981;28;20831;-72
2023/08/11 02:39:24;;;;;;;16.30;10.30;;;;;;;16.33;100.00;101911.22;5050806;28;20037;-72
2023/08/11 02:41:50;;;;;;;11.48;10.27;;;;;;;16.30;100.00;101911.44;5065167;28;20025;-72
2023/08/11 02:44:15;;;;;;;12.85;10.73;;;;;;;16.25;100.00;101908.19;5060514;28;20455;-72
2023/08/11 02:46:41;;;;;;;11.60;10.40;;;;;;;16.21;100.00;101898.59;5086554;27;20037;-72
2023/08/11 02:49:07;;;;;;;13.55;10.27;;;;;;;16.22;100.00;101897.66;5048895;28;20033;-72
2023/08/11 02:51:33;;;;;;;9.63;8.38;;;;;;;16.13;100.00;101901.00;5046948;28;20155;-72
2023/08/11 02:53:59;;;;;;;12.30;10.07;;;;;;;16.12;100.00;101902.81;5048018;28;20115;-72
2023/08/11 02:56:25;;;;;;;18.17;11.25;;;;;;;16.15;100.00;101907.97;5081032;27;20073;-72
2023/08/11 02:58:52;;;;;;;11.75;9.27;;;;;;;16.12;100.00;101899.28;5069375;28;20059;-72
2023/08/11 03:01:17;;;;;;;11.93;10.70;;;;;;;16.10;100.00;101902.06;5046866;28;20041;-72
2023/08/11 03:03:43;;;;;;;17.65;12.25;;;;;;;16.08;100.00;101906.69;5053414;28;20029;-72
2023/08/11 03:06:13;;;;;;;12.43;10.52;;;;;;;16.07;100.00;101910.34;5059187;28;20053;-72
2023/08/11 03:08:40;;;;;;;11.98;10.45;;;;;;;16.00;100.00;101903.66;5059834;28;20175;-72
2023/08/11 03:11:06;;;;;;;13.57;11.45;;;;;;;16.04;100.00;101903.34;5049905;28;21113;-72
2023/08/11 03:13:35;;;;;;;11.88;9.77;;;;;;;15.97;100.00;101903.91;5077204;27;20320;-72
2023/08/11 03:16:01;;;;;;;14.48;10.35;;;;;;;15.98;100.00;101909.16;5049254;28;20057;-72
2023/08/11 03:18:27;;;;;;;17.80;11.80;;;;;;;15.96;100.00;101915.59;5050777;28;20149;-72
2023/08/11 03:20:54;;;;;;;14.45;11.55;;;;;;;15.99;100.00;101913.56;5049206;28;20598;-73
2023/08/11 03:23:20;;;;;;;14.00;10.95;;;;;;;16.02;100.00;101910.69;5045402;28;20067;-72
2023/08/11 03:25:46;;;;;;;16.27;12.23;;;;;;;16.07;100.00;101914.88;5048418;28;20565;-72
2023/08/11 03:28:13;;;;;;;14.73;11.95;;;;;;;16.02;100.00;101916.06;5066554;28;20029;-73
2023/08/11 03:30:41;;;;;;;12.77;9.98;;;;;;;15.98;100.00;101908.31;5051304;28;20045;-72
2023/08/11 03:33:06;;;;;;;11.38;10.20;;;;;;;16.00;100.00;101915.28;5063169;28;20048;-72
2023/08/11 03:35:42;;;;;;;10.57;9.48;;;;;;;15.96;100.00;101911.06;5047197;28;20114;-72
2023/08/11 03:38:07;;;;;;;13.63;9.73;;;;;;;15.89;100.00;101914.31;5049382;28;20107;-72
2023/08/11 03:40:34;;;;;;;13.30;11.30;;;;;;;15.85;100.00;101912.78;5049989;28;20257;-72
2023/08/11 03:43:00;;;;;;;13.02;8.95;;;;;;;15.83;100.00;101901.28;5048280;28;20800;-73
2023/08/11 03:45:26;;;;;;;15.25;10.77;;;;;;;15.82;100.00;101915.72;5082607;28;20045;-72
2023/08/11 03:47:53;;;;;;;13.25;10.80;;;;;;;15.78;100.00;101905.16;5056364;28;20546;-72
2023/08/11 03:50:21;;;;;;;16.73;10.65;;;;;;;15.73;100.00;101896.53;5031602;28;20057;-72
2023/08/11 03:52:47;;;;;;;12.30;9.45;;;;;;;15.72;100.00;101900.19;5058421;28;20040;-72
2023/08/11 03:55:13;;;;;;;12.05;9.13;;;;;;;15.72;100.00;101897.50;5042930;28;20037;-72
2023/08/11 03:57:39;;;;;;;9.63;7.40;;;;;;;15.66;100.00;101892.56;5062403;28;20053;-72
2023/08/11 04:00:14;;;;;;;9.63;7.03;;;;;;;15.71;100.00;101895.78;5079264;28;20045;-72
2023/08/11 04:02:45;;;;;;;8.52;7.63;;;;;;;15.68;100.00;101895.13;5049632;28;20048;-72
2023/08/11 04:05:14;;;;;;;8.80;7.88;;;;;;;15.65;100.00;101893.50;5063699;28;20077;-72
2023/08/11 04:07:40;;;;;;;12.63;9.20;;;;;;;15.70;100.00;101895.88;5048526;28;20037;-71
2023/08/11 04:10:06;;;;;;;10.80;9.70;;;;;;;15.69;100.00;101899.53;5050017;28;20041;-72
2023/08/11 04:12:32;;;;;;;10.50;9.43;;;;;;;15.68;100.00;101903.19;5048879;28;20048;-73
2023/08/11 04:14:59;;;;;;;13.35;10.23;;;;;;;15.70;100.00;101902.09;5049649;28;20123;-72
2023/08/11 04:17:26;;;;;;;14.98;11.07;;;;;;;15.73;100.00;101893.84;5049190;28;20041;-73
2023/08/11 04:19:53;;;;;;;17.00;12.38;;;;;;;15.77;100.00;101891.81;5048845;28;20047;-73
2023/08/11 04:22:20;;;;;;;12.18;9.77;;;;;;;15.74;100.00;101886.63;5065191;28;20044;-72
2023/08/11 04:24:45;;;;;;;12.02;9.30;;;;;;;15.79;100.00;101884.50;5062312;28;20033;-73
2023/08/11 04:27:11;;;;;;;12.13;9.90;;;;;;;15.87;100.00;101892.91;5049658;28;20037;-73
2023/08/11 04:29:38;;;;;;;11.60;10.43;;;;;;;15.92;100.00;101890.75;5042877;28;20591;-73
2023/08/11 04:32:04;;;;;;;14.93;12.02;;;;;;;15.99;100.00;101888.50;5046605;28;20033;-72
2023/08/11 04:34:32;;;;;;;14.38;11.63;;;;;;;16.10;100.00;101887.75;5049168;28;20037;-73
2023/08/11 04:36:58;;;;;;;15.23;11.98;;;;;;;16.46;100.00;101878.88;5048469;28;20558;-73
2023/08/11 04:39:24;;;;;;;20.17;13.35;;;;;;;16.71;100.00;101883.38;5064933;28;20041;-73
2023/08/11 04:41:50;;;;;;;15.00;12.35;;;;;;;16.93;100.00;101883.56;5066951;28;21511;-72
2023/08/11 04:44:15;;;;;;;12.95;11.05;;;;;;;17.19;100.00;101878.94;5058220;28;20041;-72
2023/08/11 04:46:41;;;;;;;15.60;12.30;;;;;;;17.43;100.00;101875.38;5051636;28;20028;-72
2023/08/11 04:49:07;;;;;;;16.65;12.07;;;;;;;17.52;100.00;101874.66;5052868;28;20130;-72
2023/08/11 04:51:33;;;;;;;13.95;8.48;;;;;;;17.42;100.00;101879.03;5084961;27;20033;-72
2023/08/11 04:54:02;;;;;;;13.35;9.68;;;;;;;17.51;100.00;101881.88;5055389;28;20575;-72
2023/08/11 04:56:28;;;;;;;14.88;9.70;;;;;;;17.56;100.00;101881.53;5045296;28;20030;-72
2023/08/11 04:58:55;;;;;;;14.50;11.40;;;;;;;17.44;100.00;101882.50;5051865;28;20840;-72
2023/08/11 05:01:24;;;;;;;21.83;10.20;;;;;;;17.40;100.00;101876.47;5051595;28;20037;-71
2023/08/11 05:03:50;;;;;;;16.33;10.43;;;;;;;17.37;100.00;101886.59;5045452;28;20041;-72
2023/08/11 05:06:16;;;;;;;11.68;9.10;;;;;;;17.42;100.00;101879.91;5063536;28;20529;-72
2023/08/11 05:08:47;;;;;;;28.33;13.32;;;;;;;17.44;100.00;101882.50;5049633;28;20057;-72
2023/08/11 05:11:13;;;;;;;17.95;13.52;;;;;;;17.48;100.00;101887.53;5052025;28;20041;-72
2023/08/11 05:13:39;;;;;;;16.08;13.35;;;;;;;17.54;100.00;101875.41;5055574;28;20040;-72
2023/08/11 05:16:06;;;;;;;19.42;14.95;;;;;;;17.64;100.00;101875.56;5052376;28;20915;-72
2023/08/11 05:18:32;;;;;;;17.42;12.90;;;;;;;17.71;100.00;101872.28;5049663;28;20037;-72
2023/08/11 05:20:57;;;;;;;16.77;12.95;;;;;;;17.81;100.00;101873.31;5052916;28;20063;-72
2023/08/11 05:23:23;;;;;;;15.43;13.05;;;;;;;17.82;100.00;101871.47;5053037;28;20044;-73
2023/08/11 05:25:49;;;;;;;16.58;13.15;;;;;;;17.96;100.00;101865.00;5050877;28;20033;-72
2023/08/11 05:28:15;;;;;;;18.38;13.70;;;;;;;18.02;100.00;101861.81;5044633;28;20029;-73
2023/08/11 05:30:40;;;;;;;17.80;14.13;;;;;;;18.07;100.00;101856.91;5044859;28;20136;-72
2023/08/11 05:33:06;;;;;;;20.48;15.13;;;;;;;18.10;100.00;101857.53;5047987;28;20043;-72
2023/08/11 05:35:31;;;;;;;19.92;14.88;;;;;;;18.08;100.00;101861.38;5044061;28;20577;-72
2023/08/11 05:37:59;;;;;;;19.45;14.25;;;;;;;17.74;100.00;101855.91;5049591;28;20326;-72
2023/08/11 05:40:24;;;;;;;20.67;13.32;;;;;;;17.79;100.00;101848.31;5053338;28;20033;-73
2023/08/11 05:42:50;;;;;;;18.65;13.27;;;;;;;17.82;100.00;101856.16;5052516;28;20037;-72
2023/08/11 05:45:16;;;;;;;26.38;14.18;;;;;;;17.84;100.00;101850.66;5049582;28;20043;-72
2023/08/11 05:47:41;;;;;;;18.05;12.90;;;;;;;17.90;100.00;101849.31;5049876;28;20546;-72
2023/08/11 05:50:07;;;;;;;17.60;12.60;;;;;;;18.00;100.00;101851.16;5053039;28;20526;-72
2023/08/11 05:52:33;;;;;;;15.38;13.10;;;;;;;18.15;100.00;101851.78;5046183;28;20135;-72
2023/08/11 05:54:58;;;;;;;22.75;12.90;;;;;;;18.19;100.00;101847.00;5044743;28;20557;-72
2023/08/11 05:57:24;;;;;;;17.73;12.02;;;;;;;18.29;100.00;101839.91;5051823;28;20116;-72
2023/08/11 05:59:49;;;;;;;13.65;10.82;;;;;;;18.52;100.00;101841.59;5050306;28;20037;-72
2023/08/11 06:02:15;;;;;;;20.58;11.60;;;;;;;18.87;100.00;101833.31;5051751;28;20840;-72
2023/08/11 06:04:42;;;;;;;18.00;11.88;;;;;;;19.21;100.00;101835.94;5052598;28;20784;-72
2023/08/11 06:07:08;;;;;;;14.05;11.05;;;;;;;19.58;100.00;101830.13;5052916;28;20610;-73
2023/08/11 06:09:34;;;;;;;13.68;9.70;;;;;;;19.42;100.00;101834.09;5045656;28;20036;-73
2023/08/11 06:12:02;;;;;;;13.25;9.93;;;;;;;19.43;100.00;101832.28;5047694;28;20044;-72
2023/08/11 06:14:27;;;;;;;12.55;10.07;;;;;;;19.80;100.00;101832.72;5052544;28;20037;-72
2023/08/11 06:16:53;;;;;;;17.85;10.65;;;;;;;19.98;100.00;101834.78;5060461;28;20498;-71
2023/08/11 06:19:18;;;;;;;16.45;10.68;;;;;;;19.98;100.00;101840.22;5051580;28;20451;-72
2023/08/11 06:21:45;;;;;;;14.02;10.18;;;;;;;20.11;100.00;101833.59;5052142;28;20302;-72
2023/08/11 06:24:11;;;;;;;12.77;9.40;;;;;;;20.20;100.00;101836.50;5057983;28;20029;-71
2023/08/11 06:26:36;;;;;;;17.30;9.73;;;;;;;20.61;100.00;101846.38;5055972;28;20068;-72
2023/08/11 06:29:04;;;;;;;15.63;10.40;;;;;;;20.82;100.00;101839.00;5059083;28;20954;-72
2023/08/11 06:31:30;;;;;;;15.35;10.20;;;;;;;21.02;100.00;101839.91;5052674;28;20027;-73
2023/08/11 06:33:56;;;;;;;15.30;9.80;;;;;;;21.29;100.00;101835.66;5052732;28;20156;-72
2023/08/11 06:36:21;;;;;;;15.35;9.10;;;;;;;21.23;100.00;101838.91;5079950;27;20033;-72
2023/08/11 06:38:47;;;;;;;14.25;9.93;;;;;;;21.48;100.00;101840.22;5050861;28;20501;-72
2023/08/11 06:41:12;;;;;;;16.63;9.13;;;;;;;21.73;100.00;101842.34;5058973;28;20430;-72
2023/08/11 06:43:38;;;;;;;12.80;8.13;;;;;;;21.86;100.00;101842.91;5055610;28;20028;-73
2023/08/11 06:46:05;;;;;;;12.70;8.60;;;;;;;22.08;100.00;101847.13;5051152;28;20908;-72
2023/08/11 06:48:30;;;;;;;13.70;8.48;;;;;;;22.01;100.00;101837.88;5053454;28;20222;-72
2023/08/11 06:50:56;;;;;;;12.60;7.82;;;;;;;21.92;99.96;101841.47;5046727;28;20990;-72
2023/08/11 06:53:22;;;;;;;12.68;7.82;;;;;;;21.89;99.13;101839.06;5050173;28;20044;-72
2023/08/11 06:55:47;;;;;;;13.30;8.38;;;;;;;21.90;98.72;101836.19;5038354;28;20423;-72
2023/08/11 06:58:13;;;;;;;13.73;8.63;;;;;;;22.12;98.24;101840.44;5053357;28;20781;-72
2023/08/11 07:00:39;;;;;;;11.43;7.68;;;;;;;22.41;96.70;101839.47;5048028;28;20853;-72
2023/08/11 07:03:05;;;;;;;13.48;7.88;;;;;;;22.52;98.45;101836.53;5048910;28;20132;-72
2023/08/11 07:05:30;;;;;;;13.82;7.72;;;;;;;22.39;96.50;101844.19;5048710;28;20040;-72
2023/08/11 07:07:56;;;;;;;12.00;7.97;;;;;;;22.47;93.56;101849.72;5043239;28;20807;-72
2023/08/11 07:10:21;;;;;;;12.55;7.30;;;;;;;22.18;92.56;101847.13;5052307;28;20041;-72
2023/08/11 07:12:47;;;;;;;11.25;7.15;;;;;;;22.75;96.63;101850.59;5047162;28;20041;-72
2023/08/11 07:15:12;;;;;;;10.35;6.95;;;;;;;22.51;93.07;101842.16;5047659;28;20034;-72
2023/08/11 07:17:38;;;;;;;11.30;7.38;;;;;;;22.78;94.21;101850.28;5042615;28;20072;-72
2023/08/11 07:20:04;;;;;;;13.63;8.38;;;;;;;22.84;94.74;101852.41;5041465;28;20040;-72
2023/08/11 07:22:30;;;;;;;12.75;8.27;;;;;;;23.03;91.89;101854.16;5044697;28;20066;-72
2023/08/11 07:24:56;;;;;;;10.70;7.47;;;;;;;23.10;92.77;101849.84;5043793;28;20040;-72
2023/08/11 07:27:21;;;;;;;13.23;7.63;;;;;;;23.12;89.18;101849.66;5039328;28;20048;-72
2023/08/11 07:29:47;;;;;;;12.85;8.00;;;;;;;23.40;89.38;101847.75;5045938;28;20821;-72
2023/08/11 07:32:12;;;;;;;13.43;7.05;;;;;;;23.58;88.17;101850.44;5058312;28;20033;-71
2023/08/11 07:34:38;;;;;;;14.38;7.45;;;;;;;23.19;85.80;101856.19;5046607;28;20875;-71
2023/08/11 07:37:05;;;;;;;10.80;6.78;;;;;;;23.43;87.06;101850.97;5046725;28;20340;-72
2023/08/11 07:39:30;;;;;;;12.40;7.30;;;;;;;23.63;87.48;101850.81;5048829;28;20150;-72
2023/08/11 07:42:02;;;;;;;13.68;8.27;;;;;;;23.90;90.33;101844.41;5038327;28;20063;-72
2023/08/11 07:44:32;;;;;;;10.45;7.15;;;;;;;23.96;85.39;101850.06;5049423;28;20108;-72
2023/08/11 07:46:58;;;;;;;11.55;7.32;;;;;;;24.16;82.38;101848.00;5043846;28;20569;-72
2023/08/11 07:49:27;;;;;;;15.38;7.20;;;;;;;24.34;85.47;101845.16;5050606;28;20041;-72
2023/08/11 07:51:53;;;;;;;15.23;7.90;;;;;;;24.37;83.45;101841.31;5051736;28;20029;-72
2023/08/11 07:54:19;;;;;;;11.40;6.88;;;;;;;24.60;83.33;101847.91;5051131;28;20148;-72
2023/08/11 07:56:45;;;;;;;11.10;7.18;;;;;;;24.48;82.12;101846.47;5052060;28;20936;-72
2023/08/11 07:59:11;;;;;;;13.43;7.85;;;;;;;24.70;83.23;101843.16;5051398;28;20033;-71
2023/08/11 08:01:37;;;;;;;13.52;8.75;;;;;;;24.74;83.23;101844.50;5059482;28;20040;-72
2023/08/11 08:04:03;;;;;;;15.73;7.88;;;;;;;24.78;82.58;101850.50;5028937;28;20067;-72
2023/08/11 08:06:30;;;;;;;12.98;7.82;;;;;;;25.02;83.86;101850.56;5049430;28;20057;-72
2023/08/11 08:08:56;;;;;;;9.65;7.05;;;;;;;25.02;82.22;101853.31;5051554;28;20033;-72
2023/08/11 08:11:22;;;;;;;9.45;7.20;;;;;;;25.34;79.29;101850.81;5051375;28;20041;-72
2023/08/11 08:13:47;;;;;;;17.13;7.82;;;;;;;25.24;81.88;101848.25;5050447;28;20045;-71
2023/08/11 08:16:13;;;;;;;13.25;8.20;;;;;;;25.14;78.54;101844.81;5050284;28;20407;-72
2023/08/11 08:18:42;;;;;;;12.93;7.43;;;;;;;24.96;82.59;101848.53;5043906;28;20033;-71
2023/08/11 08:21:07;;;;;;;10.88;6.85;;;;;;;25.25;81.98;101853.56;5049946;28;20033;-71
2023/08/11 08:23:33;;;;;;;11.90;7.10;;;;;;;25.02;79.23;101858.75;5037861;28;20034;-71
2023/08/11 08:25:59;;;;;;;12.50;6.80;;;;;;;25.29;83.45;101856.78;5044799;28;20037;-71
2023/08/11 08:28:25;;;;;;;8.38;6.70;;;;;;;25.36;79.93;101856.97;5048100;28;20048;-71
2023/08/11 08:30:51;;;;;;;13.27;8.10;;;;;;;25.09;79.99;101855.38;5049948;28;20652;-72
2023/08/11 08:33:17;;;;;;;12.35;7.00;;;;;;;24.80;81.23;101856.66;5048382;28;20041;-72
2023/08/11 08:35:42;;;;;;;9.70;6.63;;;;;;;25.02;83.58;101856.03;5049242;28;20040;-71
2023/08/11 08:38:08;;;;;;;15.18;7.13;;;;;;;25.57;85.19;101852.72;5049349;28;20745;-71
2023/08/11 08:40:35;;;;;;;14.10;7.28;;;;;;;25.90;87.49;101849.97;5041776;28;20037;-71
2023/08/11 08:43:03;;;;;;;21.88;9.20;;;;;;;25.81;80.16;101842.84;5045617;28;20059;-71
2023/08/11 08:45:30;;;;;;;16.17;7.00;;;;;;;25.83;77.38;101846.22;5043278;28;20041;-71
2023/08/11 08:47:57;;;;;;;13.48;7.57;;;;;;;25.99;79.78;101843.47;5040596;28;20113;-71
2023/08/11 08:50:24;;;;;;;8.60;6.22;;;;;;;25.56;76.35;101840.09;5048483;28;20037;-72
2023/08/11 08:52:51;;;;;;;10.45;6.85;;;;;;;25.78;77.43;101837.69;5046936;28;20040;-72
2023/08/11 08:55:18;;;;;;;10.80;6.63;;;;;;;25.62;76.44;101838.53;5046619;28;20037;-71
2023/08/11 08:57:45;;;;;;;10.38;6.28;;;;;;;25.50;76.75;101829.84;5049487;28;20040;-71
2023/08/11 09:00:11;;;;;;;13.05;6.90;;;;;;;25.69;81.13;101841.44;5051072;28;20048;-71
2023/08/11 09:02:37;;;;;;;13.60;6.43;;;;;;;25.95;79.27;101833.06;5049753;28;20266;-71
2023/08/11 09:05:03;;;;;;;10.23;6.05;;;;;;;26.09;78.10;101835.06;5049588;28;20431;-71
2023/08/11 09:07:28;;;;;;;11.02;5.78;;;;;;;26.20;79.76;101831.97;5032221;28;20448;-72
2023/08/11 09:09:54;;;;;;;10.70;6.43;;;;;;;26.03;80.80;101835.78;5043854;28;20032;-71
2023/08/11 09:12:19;;;;;;;10.40;6.22;;;;;;;26.11;78.33;101827.56;5047244;28;20037;-72
2023/08/11 09:14:45;;;;;;;13.52;5.50;;;;;;;26.54;80.45;101831.69;5051346;28;20040;-71
2023/08/11 09:17:11;;;;;;;9.63;5.63;;;;;;;26.66;77.19;101839.50;5083822;27;20045;-71
2023/08/11 09:19:37;;;;;;;7.80;5.75;;;;;;;26.50;74.23;101840.44;5059206;28;20844;-72
2023/08/11 09:22:08;;;;;;;11.35;5.60;;;;;;;26.71;75.84;101834.34;5050119;28;20040;-72
2023/08/11 09:24:34;;;;;;;10.23;6.47;;;;;;;26.78;77.34;101838.09;5048588;28;20048;-72
2023/08/11 09:26:59;;;;;;;10.00;5.63;;;;;;;26.75;75.75;101836.53;5051630;28;20064;-72
2023/08/11 09:29:25;;;;;;;11.77;5.68;;;;;;;26.51;75.09;101837.53;5048284;28;20080;-71
2023/08/11 09:31:55;;;;;;;8.15;5.20;;;;;;;26.88;77.55;101838.72;5042456;28;20025;-72
2023/08/11 09:34:20;;;;;;;10.23;6.28;;;;;;;27.02;75.36;101837.09;5047552;28;20063;-72
2023/08/11 09:36:48;;;;;;;10.18;6.20;;;;;;;26.93;73.44;101839.03;5047270;28;20080;-72
2023/08/11 09:39:14;;;;;;;8.57;5.65;;;;;;;27.34;72.67;101836.03;5048824;28;20040;-71
2023/08/11 09:41:44;;;;;;;12.88;6.60;;;;;;;27.34;73.56;101841.50;5050082;28;20029;-71
2023/08/11 09:44:19;;;;;;;9.95;5.05;;;;;;;27.16;71.34;101832.75;5048576;28;20495;-71
2023/08/11 09:46:47;;;;;;;12.77;6.97;;;;;;;27.08;72.37;101840.00;5041180;28;20029;-71
2023/08/11 09:49:13;;;;;;;6.95;5.20;;;;;;;26.80;70.48;101836.00;5050775;28;20033;-71
2023/08/11 09:51:39;;;;;;;8.88;5.68;;;;;;;26.84;71.47;101837.38;5051485;28;20136;-71
2023/08/11 09:54:08;;;;;;;7.53;5.43;;;;;;;27.30;72.27;101830.06;5048921;28;20039;-71
2023/08/11 09:56:42;;;;;;;7.95;5.65;;;;;;;27.32;72.84;101832.63;5053269;28;20097;-72
2023/08/11 09:59:21;;;;;;;9.23;5.78;;;;;;;27.20;72.57;101834.94;5044905;28;20079;-72
2023/08/11 10:01:48;;;;;;;7.97;5.20;;;;;;;27.58;70.94;101829.50;5051895;28;20099;-71
2023/08/11 10:04:32;;;;;;;8.50;5.57;;;;;;;27.69;71.70;101829.06;5043241;28;20029;-72
2023/08/11 10:07:01;;;;;;;10.80;5.22;;;;;;;27.80;74.72;101825.03;5044533;28;20041;-72
2023/08/11 10:09:29;;;;;;;13.70;6.03;;;;;;;27.80;71.01;101819.56;5048258;28;20148;-71
2023/08/11 10:11:58;;;;;;;12.52;5.53;;;;;;;27.83;70.87;101822.78;5047675;28;20040;-72
2023/08/11 10:14:27;;;;;;;6.53;4.45;;;;;;;28.09;68.68;101822.31;5062789;28;20041;-72
2023/08/11 10:16:53;;;;;;;8.60;4.38;;;;;;;28.20;62.65;101818.25;5045161;28;20051;-72
2023/08/11 10:19:20;;;;;;;6.03;4.13;;;;;;;28.08;65.32;101820.63;5044184;28;20029;-72
2023/08/11 10:21:45;;;;;;;7.10;4.60;;;;;;;28.46;66.19;101819.69;5050937;28;20028;-71
2023/08/11 10:24:12;;;;;;;7.03;4.57;;;;;;;28.21;66.52;101814.47;5047867;28;20033;-72
2023/08/11 10:26:39;;;;;;;8.52;4.22;;;;;;;28.21;64.37;101819.94;5047488;28;20140;-72
2023/08/11 10:29:05;;;;;;;6.68;4.07;;;;;;;28.29;64.18;101808.88;5048410;28;20033;-72
2023/08/11 10:31:32;;;;;;;6.88;3.65;;;;;;;28.36;61.42;101803.50;5049050;28;20029;-72
2023/08/11 10:33:58;;;;;;;7.65;4.13;;;;;;;28.49;63.21;101802.84;5042164;28;20036;-72
2023/08/11 10:36:27;;;;;;;10.05;3.95;;;;;;;28.28;61.65;101809.94;5048516;28;20072;-72
2023/08/11 10:39:04;;;;;;;5.55;3.72;;;;;;;28.45;61.35;101807.00;5041508;28;20088;-72
2023/08/11 10:41:30;;;;;;;6.18;4.00;;;;;;;28.20;59.05;101817.41;5044805;28;20033;-72
2023/08/11 10:43:56;;;;;;;6.95;3.58;;;;;;;28.66;61.28;101812.53;5049255;28;20039;-72
2023/08/11 10:46:24;;;;;;;6.95;3.88;;;;;;;28.74;60.99;101823.44;5042316;28;20034;-71
2023/08/11 10:49:05;;;;;;;8.27;3.67;;;;;;;28.80;58.06;101821.81;5048266;28;20056;-71
2023/08/11 10:51:36;;;;;;;6.25;3.67;;;;;;;28.70;59.41;101824.00;5046732;28;20037;-72
2023/08/11 10:54:11;;;;;;;6.63;3.57;;;;;;;28.62;57.96;101825.84;5049975;28;20033;-71
2023/08/11 10:56:40;;;;;;;5.78;3.80;;;;;;;28.76;58.45;101821.31;5060882;28;21166;-72
2023/08/11 10:59:19;;;;;;;8.73;4.07;;;;;;;28.77;60.32;101822.22;5050944;28;20059;-71
2023/08/11 11:01:48;;;;;;;12.40;3.80;;;;;;;28.53;61.51;101824.22;5045910;28;20877;-71
2023/08/11 11:04:15;;;;;;;6.80;3.90;;;;;;;28.64;58.78;101811.91;5040344;28;20038;-70
2023/08/11 11:06:47;;;;;;;8.65;4.15;;;;;;;28.63;60.39;101815.69;5044338;28;20060;-72
2023/08/11 11:09:14;;;;;;;7.50;3.75;;;;;;;28.61;58.53;101821.34;5051981;28;20957;-71
2023/08/11 11:11:40;;;;;;;8.23;3.78;;;;;;;28.53;57.64;101817.91;5052274;28;20039;-71